createdAt,value
2023-01-08T00:01:18.254Z,1.29
2023-01-08T00:03:46.715Z,1.28
2023-01-08T00:06:21.474Z,1.27
2023-01-08T00:08:49.443Z,1.27
2023-01-08T00:11:17.567Z,1.27
2023-01-08T00:13:45.033Z,1.29
2023-01-08T00:16:15.018Z,1.23
2023-01-08T00:18:43.512Z,1.15
2023-01-08T00:21:11.616Z,1.14
2023-01-08T00:23:39.789Z,1.08
2023-01-08T00:26:10.285Z,0.97
2023-01-08T00:28:38.468Z,0.93
2023-01-08T00:31:11.236Z,0.98
2023-01-08T00:33:39.449Z,0.90
2023-01-08T00:36:12.803Z,0.88
2023-01-08T00:38:40.937Z,0.87
2023-01-08T00:41:09.500Z,0.85
2023-01-08T00:43:37.870Z,0.83
2023-01-08T00:46:06.008Z,0.77
2023-01-08T00:48:38.763Z,0.76
2023-01-08T00:51:08.266Z,0.76
2023-01-08T00:53:38.162Z,0.62
2023-01-08T00:56:10.389Z,0.44
2023-01-08T00:58:39.024Z,0.29
2023-01-08T01:01:12.694Z,-0.07
2023-01-08T01:03:41.113Z,0.05
2023-01-08T01:06:09.231Z,0.09
2023-01-08T01:08:36.772Z,0.07
2023-01-08T01:11:17.294Z,-0.09
2023-01-08T01:13:44.804Z,0.04
2023-01-08T01:16:12.615Z,-0.04
2023-01-08T01:18:40.178Z,0.04
2023-01-08T01:21:31.197Z,-0.02
2023-01-08T01:24:01.945Z,0.04
2023-01-08T01:26:30.168Z,0.09
2023-01-08T01:28:58.980Z,0.09
2023-01-08T01:31:29.643Z,0.10
2023-01-08T01:33:57.122Z,-0.02
2023-01-08T01:36:25.278Z,-0.03
2023-01-08T01:38:55.532Z,0.08
2023-01-08T01:41:46.288Z,-0.06
2023-01-08T01:44:34.870Z,-0.19
2023-01-08T01:47:15.979Z,-0.01
2023-01-08T01:49:55.327Z,-0.05
2023-01-08T01:52:24.027Z,0.06
2023-01-08T01:54:52.793Z,0.07
2023-01-08T01:57:20.346Z,-0.01
2023-01-08T01:59:48.631Z,0.11
2023-01-08T02:02:16.616Z,0.02
2023-01-08T02:04:44.479Z,0.08
2023-01-08T02:07:39.853Z,0.05
2023-01-08T02:10:22.624Z,0.03
2023-01-08T02:12:58.155Z,-0.12
2023-01-08T02:15:52.172Z,0.06
2023-01-08T02:18:26.941Z,0.13
2023-01-08T02:20:59.051Z,0.13
2023-01-08T02:23:33.094Z,0.16
2023-01-08T02:26:26.645Z,0.08
2023-01-08T02:29:06.444Z,-0.03
2023-01-08T02:31:35.392Z,-0.12
2023-01-08T02:34:03.265Z,-0.27
2023-01-08T02:36:42.110Z,-0.41
2023-01-08T02:39:34.088Z,-0.56
2023-01-08T02:42:04.636Z,-0.56
2023-01-08T02:44:56.802Z,-0.50
2023-01-08T02:47:30.925Z,-0.65
2023-01-08T02:50:19.102Z,-0.64
2023-01-08T02:53:06.975Z,-0.68
2023-01-08T02:55:37.307Z,-0.71
2023-01-08T02:58:05.946Z,-0.53
2023-01-08T03:00:34.021Z,-0.58
2023-01-08T03:03:09.382Z,-0.50
2023-01-08T03:05:40.342Z,-0.80
2023-01-08T03:08:10.578Z,-0.60
2023-01-08T03:10:41.479Z,-0.62
2023-01-08T03:13:15.154Z,-0.53
2023-01-08T03:15:49.766Z,-0.51
2023-01-08T03:18:23.903Z,-0.46
2023-01-08T03:20:51.455Z,-0.37
2023-01-08T03:23:22.869Z,-0.41
2023-01-08T03:25:50.505Z,-0.45
2023-01-08T03:28:30.269Z,-0.55
2023-01-08T03:30:59.745Z,-0.36
2023-01-08T03:33:29.478Z,-0.45
2023-01-08T03:35:59.303Z,-0.51
2023-01-08T03:38:40.062Z,-0.39
2023-01-08T03:41:12.959Z,-0.33
2023-01-08T03:43:40.929Z,-0.29
2023-01-08T03:46:16.291Z,-0.24
2023-01-08T03:48:44.894Z,-0.17
2023-01-08T03:51:12.714Z,-0.30
2023-01-08T03:53:40.189Z,-0.19
2023-01-08T03:56:08.155Z,-0.14
2023-01-08T03:58:35.678Z,-0.15
2023-01-08T04:01:03.289Z,-0.09
2023-01-08T04:03:31.133Z,0.00
2023-01-08T04:06:01.711Z,0.04
2023-01-08T04:08:29.270Z,0.03
2023-01-08T04:10:57.060Z,-0.08
2023-01-08T04:13:24.657Z,-0.02
2023-01-08T04:15:52.268Z,0.01
2023-01-08T04:18:20.052Z,-0.02
2023-01-08T04:20:48.469Z,0.12
2023-01-08T04:23:16.638Z,0.15
2023-01-08T04:25:44.426Z,0.17
2023-01-08T04:28:11.950Z,0.15
2023-01-08T04:30:39.451Z,0.18
2023-01-08T04:33:07.163Z,0.24
2023-01-08T04:35:34.844Z,0.27
2023-01-08T04:38:02.453Z,0.30
2023-01-08T04:40:32.234Z,0.34
2023-01-08T04:42:59.835Z,0.39
2023-01-08T04:45:27.341Z,0.39
2023-01-08T04:47:59.494Z,0.40
2023-01-08T04:50:27.255Z,0.32
2023-01-08T04:52:55.032Z,0.36
2023-01-08T04:55:22.458Z,0.24
2023-01-08T04:57:50.318Z,0.46
2023-01-08T05:00:18.282Z,0.54
2023-01-08T05:02:45.940Z,0.62
2023-01-08T05:05:13.643Z,0.63
2023-01-08T05:07:41.417Z,0.69
2023-01-08T05:10:09.249Z,0.74
2023-01-08T05:12:36.784Z,0.80
2023-01-08T05:15:04.930Z,0.90
2023-01-08T05:17:32.406Z,0.93
2023-01-08T05:19:59.917Z,0.97
2023-01-08T05:22:27.713Z,1.04
2023-01-08T05:24:55.241Z,1.06
2023-01-08T05:27:22.636Z,0.85
2023-01-08T05:29:51.841Z,0.93
2023-01-08T05:32:23.657Z,0.97
2023-01-08T05:34:51.668Z,1.08
2023-01-08T05:37:19.145Z,1.17
2023-01-08T05:39:46.691Z,1.17
2023-01-08T05:42:14.485Z,1.21
2023-01-08T05:44:41.950Z,1.21
2023-01-08T05:47:09.478Z,1.28
2023-01-08T05:49:37.166Z,1.28
2023-01-08T05:52:04.909Z,1.36
2023-01-08T05:54:32.366Z,1.38
2023-01-08T05:57:00.124Z,1.39
2023-01-08T05:59:27.626Z,1.43
2023-01-08T06:01:55.208Z,1.42
2023-01-08T06:04:22.947Z,1.51
2023-01-08T06:06:50.463Z,1.54
2023-01-08T06:09:18.077Z,1.56
2023-01-08T06:11:45.838Z,1.58
2023-01-08T06:14:15.863Z,1.62
2023-01-08T06:16:44.106Z,1.58
2023-01-08T06:19:12.515Z,1.57
2023-01-08T06:21:40.078Z,1.67
2023-01-08T06:24:07.793Z,1.68
2023-01-08T06:26:35.639Z,1.69
2023-01-08T06:29:04.031Z,1.69
2023-01-08T06:31:31.637Z,1.70
2023-01-08T06:33:59.424Z,1.71
2023-01-08T06:36:26.842Z,1.78
2023-01-08T06:38:55.848Z,1.78
2023-01-08T06:41:23.618Z,1.82
2023-01-08T06:43:51.078Z,1.84
2023-01-08T06:46:18.609Z,1.85
2023-01-08T06:48:46.630Z,1.87
2023-01-08T06:51:14.136Z,1.88
2023-01-08T06:53:41.588Z,1.92
2023-01-08T06:56:10.940Z,1.96
2023-01-08T06:58:39.564Z,1.99
2023-01-08T07:01:07.177Z,2.01
2023-01-08T07:03:35.085Z,1.99
2023-01-08T07:06:03.475Z,2.08
2023-01-08T07:08:31.299Z,2.07
2023-01-08T07:11:06.238Z,2.04
2023-01-08T07:13:33.761Z,2.03
2023-01-08T07:16:09.693Z,1.97
2023-01-08T07:18:37.540Z,1.96
2023-01-08T07:21:07.399Z,1.95
2023-01-08T07:23:35.155Z,1.92
2023-01-08T07:26:04.474Z,1.86
2023-01-08T07:28:32.370Z,1.83
2023-01-08T07:31:04.758Z,1.81
2023-01-08T07:33:32.699Z,1.79
2023-01-08T07:36:00.368Z,1.79
2023-01-08T07:38:28.386Z,1.72
2023-01-08T07:40:57.969Z,1.65
2023-01-08T07:43:26.443Z,1.66
2023-01-08T07:45:53.949Z,1.76
2023-01-08T07:48:21.760Z,1.78
2023-01-08T07:50:49.285Z,1.81
2023-01-08T07:53:17.857Z,1.88
2023-01-08T07:55:45.620Z,1.95
2023-01-08T07:58:14.731Z,2.04
2023-01-08T08:00:42.556Z,2.02
2023-01-08T08:03:13.393Z,2.11
2023-01-08T08:05:40.871Z,2.21
2023-01-08T08:08:12.441Z,2.20
2023-01-08T08:10:45.189Z,2.32
2023-01-08T08:13:13.035Z,2.25
2023-01-08T08:15:41.466Z,2.45
2023-01-08T08:18:09.797Z,2.51
2023-01-08T08:20:38.254Z,2.59
2023-01-08T08:23:13.167Z,2.64
2023-01-08T08:25:42.030Z,2.70
2023-01-08T08:28:11.387Z,2.66
2023-01-08T08:30:42.089Z,2.81
2023-01-08T08:33:10.802Z,2.87
2023-01-08T08:35:38.264Z,2.95
2023-01-08T08:38:06.162Z,3.01
2023-01-08T08:40:33.928Z,3.10
2023-01-08T08:43:03.367Z,3.14
2023-01-08T08:45:31.254Z,3.25
2023-01-08T08:47:59.013Z,3.28
2023-01-08T08:50:26.582Z,3.32
2023-01-08T08:53:00.495Z,3.43
2023-01-08T08:55:28.974Z,3.48
2023-01-08T08:58:06.865Z,3.54
2023-01-08T09:00:34.735Z,3.59
2023-01-08T09:03:02.421Z,3.69
2023-01-08T09:05:30.349Z,3.74
2023-01-08T09:07:58.761Z,3.79
2023-01-08T09:10:26.422Z,3.74
2023-01-08T09:12:54.183Z,3.91
2023-01-08T09:15:22.434Z,3.93
2023-01-08T09:17:55.471Z,4.08
2023-01-08T09:20:24.833Z,4.09
2023-01-08T09:22:52.493Z,4.31
2023-01-08T09:25:20.358Z,4.40
2023-01-08T09:27:48.242Z,4.48
2023-01-08T09:30:15.749Z,4.60
2023-01-08T09:32:43.459Z,4.62
2023-01-08T09:35:11.319Z,4.73
2023-01-08T09:37:38.746Z,4.80
2023-01-08T09:40:06.831Z,4.93
2023-01-08T09:42:35.496Z,4.99
2023-01-08T09:45:03.799Z,5.09
2023-01-08T09:47:39.872Z,5.19
2023-01-08T09:50:13.815Z,5.25
2023-01-08T09:52:43.633Z,5.40
2023-01-08T09:55:14.420Z,5.50
2023-01-08T09:57:43.809Z,5.59
2023-01-08T10:00:19.885Z,5.64
2023-01-08T10:02:48.048Z,5.82
2023-01-08T10:05:18.220Z,5.95
2023-01-08T10:07:46.671Z,6.06
2023-01-08T10:10:19.231Z,6.14
2023-01-08T10:12:48.824Z,6.21
2023-01-08T10:15:19.289Z,6.33
2023-01-08T10:18:05.762Z,6.48
2023-01-08T10:20:34.292Z,6.67
2023-01-08T10:23:11.462Z,6.89
2023-01-08T10:25:54.412Z,7.05
2023-01-08T10:28:25.914Z,7.21
2023-01-08T10:30:58.655Z,7.35
2023-01-08T10:33:29.243Z,7.47
2023-01-08T10:36:02.885Z,7.57
2023-01-08T10:38:52.365Z,7.72
2023-01-08T10:41:21.561Z,7.79
2023-01-08T10:43:58.665Z,7.83
2023-01-08T10:46:31.181Z,7.94
2023-01-08T10:49:01.303Z,7.95
2023-01-08T10:51:31.784Z,7.96
2023-01-08T10:54:01.895Z,7.99
2023-01-08T10:56:40.221Z,8.05
2023-01-08T10:59:19.327Z,8.18
2023-01-08T11:01:48.886Z,8.20
2023-01-08T11:04:23.672Z,8.18
2023-01-08T11:06:51.746Z,8.19
2023-01-08T11:09:27.494Z,8.19
2023-01-08T11:11:55.678Z,8.26
2023-01-08T11:14:35.427Z,8.31
2023-01-08T11:17:11.224Z,8.33
2023-01-08T11:19:39.980Z,8.37
2023-01-08T11:22:26.729Z,8.47
2023-01-08T11:24:54.488Z,8.55
2023-01-08T11:27:30.589Z,8.59
2023-01-08T11:30:13.350Z,8.63
2023-01-08T11:32:50.058Z,8.70
2023-01-08T11:35:21.514Z,8.76
2023-01-08T11:37:52.362Z,8.79
2023-01-08T11:40:38.544Z,8.79
2023-01-08T11:43:18.283Z,8.75
2023-01-08T11:45:57.858Z,8.78
2023-01-08T11:49:01.693Z,8.84
2023-01-08T11:51:40.531Z,9.02
2023-01-08T11:54:23.385Z,9.07
2023-01-08T11:57:20.052Z,9.15
2023-01-08T11:59:54.820Z,9.20
2023-01-08T12:02:46.559Z,9.24
2023-01-08T12:05:23.209Z,9.29
2023-01-08T12:08:00.986Z,9.34
2023-01-08T12:11:00.327Z,9.41
2023-01-08T12:13:52.795Z,9.39
2023-01-08T12:16:58.363Z,9.44
2023-01-08T12:19:37.052Z,9.51
2023-01-08T12:22:23.312Z,9.55
2023-01-08T12:24:50.725Z,9.64
2023-01-08T12:27:25.925Z,9.72
2023-01-08T12:30:16.153Z,9.83
2023-01-08T12:32:50.604Z,9.94
2023-01-08T12:35:32.889Z,9.97
2023-01-08T12:38:13.003Z,9.99
2023-01-08T12:40:44.539Z,10.01
2023-01-08T12:43:22.698Z,10.07
2023-01-08T12:45:54.088Z,10.10
2023-01-08T12:48:27.042Z,10.18
2023-01-08T12:51:18.064Z,10.21
2023-01-08T12:54:02.623Z,10.22
2023-01-08T12:56:35.891Z,10.24
2023-01-08T12:59:28.540Z,10.29
2023-01-08T13:02:31.409Z,10.31
2023-01-08T13:05:19.499Z,10.28
2023-01-08T13:07:57.891Z,10.28
2023-01-08T13:10:31.373Z,10.31
2023-01-08T13:13:02.008Z,10.31
2023-01-08T13:15:31.445Z,10.32
2023-01-08T13:18:15.415Z,10.32
2023-01-08T13:20:54.322Z,10.33
2023-01-08T13:23:26.647Z,10.27
2023-01-08T13:25:57.554Z,10.37
2023-01-08T13:28:24.920Z,10.37
2023-01-08T13:30:55.666Z,10.38
2023-01-08T13:33:34.925Z,10.34
2023-01-08T13:36:30.465Z,10.36
2023-01-08T13:39:21.401Z,10.35
2023-01-08T13:42:02.712Z,10.36
2023-01-08T13:44:41.038Z,10.35
2023-01-08T13:47:26.582Z,10.31
2023-01-08T13:49:55.694Z,10.28
2023-01-08T13:52:45.371Z,10.23
2023-01-08T13:55:29.540Z,10.22
2023-01-08T13:58:09.738Z,10.19
2023-01-08T14:00:43.545Z,10.17
2023-01-08T14:03:24.231Z,10.14
2023-01-08T14:05:51.909Z,10.11
2023-01-08T14:08:26.671Z,10.09
2023-01-08T14:10:54.381Z,10.05
2023-01-08T14:13:27.757Z,10.05
2023-01-08T14:16:06.072Z,10.03
2023-01-08T14:18:34.401Z,10.00
2023-01-08T14:21:03.452Z,9.95
2023-01-08T14:23:36.328Z,9.87
2023-01-08T14:26:06.509Z,9.90
2023-01-08T14:28:34.467Z,9.85
2023-01-08T14:31:02.757Z,9.79
2023-01-08T14:33:35.523Z,9.74
2023-01-08T14:36:06.581Z,9.68
2023-01-08T14:38:34.376Z,9.66
2023-01-08T14:41:12.402Z,9.62
2023-01-08T14:43:43.194Z,9.57
2023-01-08T14:46:26.311Z,9.51
2023-01-08T14:48:55.897Z,9.45
2023-01-08T14:51:29.459Z,9.38
2023-01-08T14:54:03.296Z,9.31
2023-01-08T14:56:33.731Z,9.23
2023-01-08T14:59:12.464Z,9.13
2023-01-08T15:01:40.389Z,8.93
2023-01-08T15:04:17.378Z,8.95
2023-01-08T15:06:46.333Z,8.84
2023-01-08T15:09:24.501Z,8.77
2023-01-08T15:11:57.318Z,8.66
2023-01-08T15:14:27.351Z,8.52
2023-01-08T15:16:59.461Z,8.48
2023-01-08T15:19:29.791Z,8.40
2023-01-08T15:22:00.350Z,8.34
2023-01-08T15:24:32.427Z,8.27
2023-01-08T15:27:09.911Z,8.18
2023-01-08T15:29:49.026Z,8.09
2023-01-08T15:32:16.423Z,8.00
2023-01-08T15:34:45.699Z,7.96
2023-01-08T15:37:15.143Z,7.90
2023-01-08T15:39:43.412Z,7.85
2023-01-08T15:42:50.727Z,7.82
2023-01-08T15:45:21.234Z,7.76
2023-01-08T15:47:48.974Z,7.71
2023-01-08T15:50:16.426Z,7.65
2023-01-08T15:52:44.138Z,7.63
2023-01-08T15:55:18.052Z,7.61
2023-01-08T15:57:46.215Z,7.55
2023-01-08T16:00:16.315Z,7.55
2023-01-08T16:02:46.955Z,7.51
2023-01-08T16:05:17.530Z,7.48
2023-01-08T16:07:46.264Z,7.44
2023-01-08T16:10:15.930Z,7.34
2023-01-08T16:12:43.672Z,7.37
2023-01-08T16:15:12.425Z,7.31
2023-01-08T16:17:40.798Z,7.33
2023-01-08T16:20:09.669Z,7.31
2023-01-08T16:22:37.507Z,7.30
2023-01-08T16:25:05.856Z,7.26
2023-01-08T16:27:34.186Z,7.23
2023-01-08T16:30:02.515Z,7.21
2023-01-08T16:32:32.698Z,7.20
2023-01-08T16:35:00.128Z,7.21
2023-01-08T16:37:27.835Z,7.19
2023-01-08T16:39:55.365Z,7.21
2023-01-08T16:42:22.878Z,7.20
2023-01-08T16:44:50.653Z,7.21
2023-01-08T16:47:18.134Z,7.23
2023-01-08T16:49:45.732Z,7.25
2023-01-08T16:52:13.691Z,7.24
2023-01-08T16:54:41.455Z,7.26
2023-01-08T16:57:10.271Z,7.28
2023-01-08T16:59:38.550Z,7.30
2023-01-08T17:02:06.613Z,7.31
2023-01-08T17:04:34.425Z,7.31
2023-01-08T17:07:03.270Z,7.38
2023-01-08T17:09:30.699Z,7.38
2023-01-08T17:12:01.476Z,7.41
2023-01-08T17:14:29.236Z,7.44
2023-01-08T17:16:56.611Z,7.45
2023-01-08T17:19:24.726Z,7.49
2023-01-08T17:21:52.680Z,7.51
2023-01-08T17:24:20.417Z,7.52
2023-01-08T17:26:48.091Z,7.55
2023-01-08T17:29:17.087Z,7.57
2023-01-08T17:31:44.779Z,7.58
2023-01-08T17:34:15.214Z,7.61
2023-01-08T17:36:43.346Z,7.62
2023-01-08T17:39:12.389Z,7.63
2023-01-08T17:41:58.995Z,7.67
2023-01-08T17:44:27.149Z,7.69
2023-01-08T17:46:54.828Z,7.72
2023-01-08T17:49:22.584Z,7.73
2023-01-08T17:51:53.347Z,7.76
2023-01-08T17:54:21.170Z,7.77
2023-01-08T17:56:49.029Z,7.80
2023-01-08T17:59:18.459Z,7.82
2023-01-08T18:01:47.790Z,7.85
2023-01-08T18:04:15.764Z,7.86
2023-01-08T18:06:43.866Z,7.89
2023-01-08T18:09:12.596Z,7.91
2023-01-08T18:11:41.487Z,7.94
2023-01-08T18:14:11.424Z,7.95
2023-01-08T18:16:40.241Z,7.96
2023-01-08T18:19:09.196Z,7.97
2023-01-08T18:21:36.687Z,7.97
2023-01-08T18:24:04.179Z,7.99
2023-01-08T18:26:32.057Z,8.02
2023-01-08T18:28:59.538Z,8.03
2023-01-08T18:31:27.174Z,8.06
2023-01-08T18:33:55.373Z,8.06
2023-01-08T18:36:23.130Z,8.08
2023-01-08T18:38:51.544Z,8.06
2023-01-08T18:41:39.462Z,8.07
2023-01-08T18:44:09.080Z,8.06
2023-01-08T18:46:37.635Z,8.08
2023-01-08T18:49:06.031Z,8.07
2023-01-08T18:51:33.753Z,8.06
2023-01-08T18:54:03.048Z,8.06
2023-01-08T18:56:33.391Z,8.05
2023-01-08T18:59:02.644Z,8.06
2023-01-08T19:01:30.550Z,8.04
2023-01-08T19:03:58.626Z,8.07
2023-01-08T19:06:27.591Z,8.07
2023-01-08T19:08:59.674Z,8.08
2023-01-08T19:11:27.888Z,8.08
2023-01-08T19:13:57.157Z,8.06
2023-01-08T19:16:26.090Z,8.10
2023-01-08T19:18:54.117Z,8.09
2023-01-08T19:21:21.751Z,8.10
2023-01-08T19:23:49.430Z,8.15
2023-01-08T19:26:17.313Z,8.19
2023-01-08T19:28:45.485Z,8.19
2023-01-08T19:31:16.441Z,8.19
2023-01-08T19:33:46.340Z,8.23
2023-01-08T19:36:16.408Z,8.23
2023-01-08T19:38:44.928Z,8.25
2023-01-08T19:41:32.354Z,8.25
2023-01-08T19:44:00.458Z,8.28
2023-01-08T19:46:28.728Z,8.29
2023-01-08T19:48:58.184Z,8.31
2023-01-08T19:51:26.971Z,8.32
2023-01-08T19:53:57.229Z,8.32
2023-01-08T19:56:25.133Z,8.32
2023-01-08T19:58:53.112Z,8.31
2023-01-08T20:01:25.459Z,8.31
2023-01-08T20:03:54.045Z,8.32
2023-01-08T20:06:26.266Z,8.33
2023-01-08T20:08:59.782Z,8.32
2023-01-08T20:11:28.545Z,8.32
2023-01-08T20:14:00.584Z,8.36
2023-01-08T20:16:29.749Z,8.35
2023-01-08T20:19:04.076Z,8.35
2023-01-08T20:21:34.158Z,8.35
2023-01-08T20:24:09.631Z,8.38
2023-01-08T20:26:37.918Z,8.36
2023-01-08T20:29:06.342Z,8.36
2023-01-08T20:31:35.036Z,8.36
2023-01-08T20:34:05.450Z,8.36
2023-01-08T20:36:34.851Z,8.34
2023-01-08T20:39:11.518Z,8.33
2023-01-08T20:41:41.161Z,8.31
2023-01-08T20:44:11.605Z,8.29
2023-01-08T20:46:39.715Z,8.27
2023-01-08T20:49:13.161Z,8.25
2023-01-08T20:51:46.237Z,8.23
2023-01-08T20:54:19.035Z,8.20
2023-01-08T20:56:47.739Z,8.19
2023-01-08T20:59:16.506Z,8.12
2023-01-08T21:01:44.079Z,8.14
2023-01-08T21:04:12.085Z,8.11
2023-01-08T21:06:39.642Z,8.09
2023-01-08T21:09:10.205Z,8.06
2023-01-08T21:11:41.709Z,8.05
2023-01-08T21:14:10.389Z,8.02
2023-01-08T21:16:40.446Z,8.01
2023-01-08T21:19:10.570Z,8.00
2023-01-08T21:21:40.884Z,7.98
2023-01-08T21:24:11.611Z,7.97
2023-01-08T21:26:39.439Z,7.95
2023-01-08T21:29:08.873Z,7.93
2023-01-08T21:31:37.748Z,7.90
2023-01-08T21:34:06.216Z,7.87
2023-01-08T21:36:33.732Z,7.86
2023-01-08T21:39:02.101Z,7.85
2023-01-08T21:41:49.012Z,7.83
2023-01-08T21:44:38.980Z,7.83
2023-01-08T21:47:10.035Z,7.82
2023-01-08T21:49:37.595Z,7.80
2023-01-08T21:52:24.424Z,7.78
2023-01-08T21:54:52.634Z,7.76
2023-01-08T21:57:20.793Z,7.76
2023-01-08T21:59:49.568Z,7.72
2023-01-08T22:02:20.270Z,7.64
2023-01-08T22:04:48.533Z,7.69
2023-01-08T22:07:16.403Z,7.69
2023-01-08T22:09:44.035Z,7.66
2023-01-08T22:12:14.025Z,7.67
2023-01-08T22:14:41.507Z,7.64
2023-01-08T22:17:09.417Z,7.61
2023-01-08T22:19:38.138Z,7.59
2023-01-08T22:22:06.170Z,7.59
2023-01-08T22:24:34.180Z,7.55
2023-01-08T22:27:02.036Z,7.55
2023-01-08T22:29:29.565Z,7.53
2023-01-08T22:31:57.078Z,7.51
2023-01-08T22:34:24.978Z,7.49
2023-01-08T22:36:53.138Z,7.50
2023-01-08T22:39:20.725Z,7.50
2023-01-08T22:41:48.510Z,7.49
2023-01-08T22:44:16.087Z,7.48
2023-01-08T22:46:43.864Z,7.47
2023-01-08T22:49:13.241Z,7.39
2023-01-08T22:51:44.447Z,7.45
2023-01-08T22:54:13.537Z,7.44
2023-01-08T22:56:41.048Z,7.45
2023-01-08T22:59:08.534Z,7.44
2023-01-08T23:01:36.848Z,7.44
2023-01-08T23:04:04.649Z,7.41
2023-01-08T23:06:32.714Z,7.40
2023-01-08T23:09:00.576Z,7.40
2023-01-08T23:11:28.511Z,7.37
2023-01-08T23:13:56.458Z,7.25
2023-01-08T23:16:25.312Z,7.31
2023-01-08T23:18:54.478Z,7.28
2023-01-08T23:21:24.271Z,7.25
2023-01-08T23:23:52.833Z,7.22
2023-01-08T23:26:26.220Z,7.19
2023-01-08T23:28:55.864Z,7.16
2023-01-08T23:31:26.455Z,7.13
2023-01-08T23:33:55.089Z,7.09
2023-01-08T23:36:23.141Z,7.06
2023-01-08T23:38:55.361Z,7.03
2023-01-08T23:41:31.983Z,7.01
2023-01-08T23:44:02.637Z,6.99
2023-01-08T23:46:30.519Z,6.99
2023-01-08T23:48:58.371Z,6.99
2023-01-08T23:51:25.962Z,6.94
2023-01-08T23:53:53.746Z,6.92
2023-01-08T23:56:21.477Z,6.90
2023-01-08T23:58:49.518Z,6.86
